createdAt,value
2022-11-23T00:00:12.759Z,1.70
2022-11-23T00:01:12.686Z,1.60
2022-11-23T00:02:12.744Z,1.50
2022-11-23T00:03:12.700Z,1.40
2022-11-23T00:04:12.665Z,1.40
2022-11-23T00:05:12.663Z,1.50
2022-11-23T00:06:12.670Z,1.60
2022-11-23T00:07:12.680Z,1.60
2022-11-23T00:08:12.634Z,2.10
2022-11-23T00:09:12.654Z,1.70
2022-11-23T00:10:12.603Z,1.70
2022-11-23T00:11:12.590Z,1.80
2022-11-23T00:12:12.589Z,1.50
2022-11-23T00:13:12.592Z,1.50
2022-11-23T00:14:12.581Z,2.00
2022-11-23T00:15:12.594Z,1.70
2022-11-23T00:16:12.569Z,1.80
2022-11-23T00:17:12.563Z,1.50
2022-11-23T00:18:12.589Z,1.90
2022-11-23T00:19:12.575Z,1.70
2022-11-23T00:20:12.511Z,1.50
2022-11-23T00:21:12.515Z,1.60
2022-11-23T00:22:12.578Z,1.40
2022-11-23T00:23:12.485Z,1.60
2022-11-23T00:24:12.491Z,1.80
2022-11-23T00:25:12.532Z,1.60
2022-11-23T00:26:12.561Z,1.90
2022-11-23T00:27:12.470Z,1.80
2022-11-23T00:28:12.448Z,1.80
2022-11-23T00:29:12.433Z,1.60
2022-11-23T00:30:12.445Z,1.60
2022-11-23T00:31:12.470Z,1.60
2022-11-23T00:32:12.405Z,1.70
2022-11-23T00:33:12.396Z,1.50
2022-11-23T00:34:12.391Z,1.50
2022-11-23T00:35:12.397Z,1.50
2022-11-23T00:36:12.375Z,1.40
2022-11-23T00:37:12.373Z,1.80
2022-11-23T00:38:12.391Z,1.70
2022-11-23T00:39:12.366Z,1.90
2022-11-23T00:40:12.316Z,1.60
2022-11-23T00:41:12.304Z,1.60
2022-11-23T00:42:12.313Z,1.80
2022-11-23T00:43:12.371Z,1.60
2022-11-23T00:44:12.312Z,1.30
2022-11-23T00:45:12.406Z,1.50
2022-11-23T00:46:12.279Z,2.00
2022-11-23T00:47:12.365Z,1.50
2022-11-23T00:48:12.246Z,1.70
2022-11-23T00:49:12.254Z,1.50
2022-11-23T00:50:12.318Z,2.00
2022-11-23T00:51:12.227Z,1.50
2022-11-23T00:52:12.193Z,1.80
2022-11-23T00:53:12.208Z,1.50
2022-11-23T00:54:12.202Z,1.50
2022-11-23T00:55:12.189Z,1.70
2022-11-23T00:56:12.234Z,1.70
2022-11-23T00:57:12.200Z,1.80
2022-11-23T00:58:12.248Z,1.30
2022-11-23T00:59:12.150Z,1.90
2022-11-23T01:00:12.131Z,2.00
2022-11-23T01:01:12.370Z,1.60
2022-11-23T01:02:12.121Z,1.60
2022-11-23T01:03:12.148Z,1.60
2022-11-23T01:04:12.115Z,1.80
2022-11-23T01:05:12.089Z,1.90
2022-11-23T01:06:12.068Z,1.50
2022-11-23T01:07:12.112Z,1.90
2022-11-23T01:08:12.075Z,1.80
2022-11-23T01:09:12.044Z,1.70
2022-11-23T01:10:12.045Z,1.70
2022-11-23T01:11:12.027Z,1.70
2022-11-23T01:12:12.033Z,1.60
2022-11-23T01:13:12.003Z,1.70
2022-11-23T01:14:12.020Z,1.60
2022-11-23T01:15:12.114Z,1.80
2022-11-23T01:16:12.008Z,1.80
2022-11-23T01:17:11.966Z,1.90
2022-11-23T01:18:11.936Z,1.90
2022-11-23T01:19:11.958Z,1.80
2022-11-23T01:20:11.978Z,1.80
2022-11-23T01:21:11.921Z,1.60
2022-11-23T01:22:11.915Z,1.80
2022-11-23T01:23:11.902Z,2.10
2022-11-23T01:24:11.905Z,2.00
2022-11-23T01:25:11.917Z,1.60
2022-11-23T01:26:11.895Z,1.40
2022-11-23T01:27:11.864Z,1.80
2022-11-23T01:28:11.865Z,1.70
2022-11-23T01:29:11.965Z,1.90
2022-11-23T01:30:11.861Z,2.10
2022-11-23T01:31:11.838Z,2.00
2022-11-23T01:32:11.873Z,2.00
2022-11-23T01:33:11.839Z,1.60
2022-11-23T01:34:11.877Z,1.70
2022-11-23T01:35:11.913Z,1.80
2022-11-23T01:36:11.787Z,1.80
2022-11-23T01:37:11.772Z,2.00
2022-11-23T01:38:17.830Z,2.00
2022-11-23T01:39:11.782Z,1.60
2022-11-23T01:40:11.770Z,1.70
2022-11-23T01:41:11.740Z,1.80
2022-11-23T01:42:15.207Z,2.00
2022-11-23T01:43:11.811Z,2.10
2022-11-23T01:44:11.721Z,1.50
2022-11-23T01:45:12.049Z,1.60
2022-11-23T01:46:11.704Z,2.00
2022-11-23T01:47:11.685Z,1.80
2022-11-23T01:48:11.682Z,1.80
2022-11-23T01:49:11.672Z,1.60
2022-11-23T01:50:11.658Z,1.50
2022-11-23T01:51:11.620Z,1.60
2022-11-23T01:52:11.621Z,1.80
2022-11-23T01:53:11.626Z,1.60
2022-11-23T01:54:11.601Z,1.30
2022-11-23T01:55:11.749Z,1.90
2022-11-23T01:56:11.607Z,2.00
2022-11-23T01:57:11.600Z,1.40
2022-11-23T01:58:11.558Z,1.70
2022-11-23T01:59:11.556Z,1.80
2022-11-23T02:00:11.570Z,1.80
2022-11-23T02:03:12.269Z,2.00
2022-11-23T02:04:12.700Z,1.80
2022-11-23T02:05:12.697Z,2.10
2022-11-23T02:06:12.678Z,2.20
2022-11-23T02:07:12.761Z,1.60
2022-11-23T02:08:12.663Z,1.70
2022-11-23T02:09:12.742Z,1.80
2022-11-23T02:10:12.654Z,1.80
2022-11-23T02:11:12.622Z,1.60
2022-11-23T02:12:12.621Z,1.80
2022-11-23T02:13:12.647Z,1.60
2022-11-23T02:14:12.756Z,2.20
2022-11-23T02:15:12.638Z,1.70
2022-11-23T02:16:12.629Z,1.60
2022-11-23T02:17:12.624Z,1.80
2022-11-23T02:18:12.571Z,2.10
2022-11-23T02:19:12.626Z,1.30
2022-11-23T02:20:12.573Z,1.60
2022-11-23T02:21:12.542Z,1.90
2022-11-23T02:22:12.552Z,1.50
2022-11-23T02:23:12.508Z,1.80
2022-11-23T02:24:12.529Z,1.90
2022-11-23T02:25:12.533Z,2.10
2022-11-23T02:26:11.492Z,1.50
2022-11-23T02:27:12.526Z,2.30
2022-11-23T02:28:12.479Z,1.40
2022-11-23T02:29:12.461Z,1.70
2022-11-23T02:30:12.583Z,1.90
2022-11-23T02:31:12.574Z,1.90
2022-11-23T02:32:12.447Z,1.50
2022-11-23T02:33:12.452Z,1.90
2022-11-23T02:34:12.428Z,1.70
2022-11-23T02:35:12.388Z,2.00
2022-11-23T02:36:12.380Z,2.00
2022-11-23T02:37:12.398Z,2.10
2022-11-23T02:38:12.401Z,2.00
2022-11-23T02:39:12.364Z,2.00
2022-11-23T02:40:12.401Z,2.10
2022-11-23T02:41:12.324Z,2.20
2022-11-23T02:42:12.333Z,2.00
2022-11-23T02:43:12.323Z,2.10
2022-11-23T02:44:12.339Z,2.00
2022-11-23T02:45:12.346Z,1.90
2022-11-23T02:46:12.336Z,2.00
2022-11-23T02:47:12.315Z,1.50
2022-11-23T02:48:12.261Z,2.20
2022-11-23T02:49:12.310Z,2.20
2022-11-23T02:50:12.240Z,2.00
2022-11-23T02:51:12.237Z,1.70
2022-11-23T02:52:12.252Z,1.90
2022-11-23T02:53:12.233Z,2.40
2022-11-23T02:54:12.202Z,1.80
2022-11-23T02:55:12.304Z,2.00
2022-11-23T02:56:12.177Z,2.00
2022-11-23T02:57:12.207Z,2.50
2022-11-23T02:58:12.215Z,1.90
2022-11-23T02:59:12.155Z,2.00
2022-11-23T03:00:12.144Z,2.20
2022-11-23T03:01:12.165Z,2.80
2022-11-23T03:02:12.148Z,2.60
2022-11-23T03:03:12.172Z,2.70
2022-11-23T03:04:12.117Z,2.70
2022-11-23T03:05:12.111Z,3.80
2022-11-23T03:06:12.097Z,3.00
2022-11-23T03:07:12.242Z,2.90
2022-11-23T03:08:12.065Z,2.80
2022-11-23T03:09:12.086Z,2.80
2022-11-23T03:10:12.079Z,2.20
2022-11-23T03:11:12.154Z,2.60
2022-11-23T03:12:12.029Z,2.30
2022-11-23T03:13:12.035Z,3.10
2022-11-23T03:14:12.063Z,2.80
2022-11-23T03:15:11.999Z,3.50
2022-11-23T03:16:11.994Z,3.20
2022-11-23T03:17:12.007Z,4.30
2022-11-23T03:18:12.052Z,3.10
2022-11-23T03:19:11.964Z,3.30
2022-11-23T03:20:11.962Z,4.20
2022-11-23T03:21:11.967Z,3.00
2022-11-23T03:22:11.987Z,2.40
2022-11-23T03:23:11.922Z,5.20
2022-11-23T03:24:11.954Z,3.90
2022-11-23T03:25:11.967Z,4.50
2022-11-23T03:26:13.297Z,3.70
2022-11-23T03:27:11.880Z,3.00
2022-11-23T03:28:11.863Z,3.20
2022-11-23T03:29:11.895Z,2.50
2022-11-23T03:30:11.870Z,2.50
2022-11-23T03:31:11.837Z,2.20
2022-11-23T03:32:11.851Z,2.40
2022-11-23T03:33:11.820Z,2.80
2022-11-23T03:34:11.849Z,2.70
2022-11-23T03:35:11.841Z,2.50
2022-11-23T03:36:11.790Z,2.50
2022-11-23T03:37:11.790Z,2.40
2022-11-23T03:38:11.805Z,2.30
2022-11-23T03:39:11.768Z,2.30
2022-11-23T03:40:11.787Z,2.30
2022-11-23T03:41:11.747Z,2.20
2022-11-23T03:42:11.743Z,2.10
2022-11-23T03:43:11.734Z,1.80
2022-11-23T03:44:11.742Z,1.90
2022-11-23T03:45:11.706Z,1.90
2022-11-23T03:46:11.733Z,2.00
2022-11-23T03:47:11.703Z,1.70
2022-11-23T03:48:11.731Z,1.90
2022-11-23T03:49:11.667Z,1.90
2022-11-23T03:50:11.660Z,1.90
2022-11-23T03:51:11.695Z,1.60
2022-11-23T03:52:11.669Z,2.00
2022-11-23T03:53:11.646Z,1.90
2022-11-23T03:54:11.625Z,1.60
2022-11-23T03:55:11.618Z,1.70
2022-11-23T03:56:11.605Z,2.00
2022-11-23T03:57:11.586Z,2.10
2022-11-23T03:58:11.595Z,1.90
2022-11-23T03:59:11.596Z,1.80
2022-11-23T04:00:11.563Z,1.80
2022-11-23T04:01:11.616Z,1.70
2022-11-23T04:02:11.558Z,2.20
2022-11-23T04:03:11.628Z,1.60
2022-11-23T04:04:11.524Z,1.40
2022-11-23T04:05:11.532Z,2.10
2022-11-23T04:06:11.543Z,1.80
2022-11-23T04:07:11.534Z,1.70
2022-11-23T04:08:11.486Z,1.70
2022-11-23T04:09:11.525Z,1.50
2022-11-23T04:10:11.505Z,1.90
2022-11-23T04:11:11.497Z,1.70
2022-11-23T04:12:11.462Z,1.70
2022-11-23T04:13:11.470Z,1.70
2022-11-23T04:14:11.440Z,1.60
2022-11-23T04:15:11.431Z,2.80
2022-11-23T04:16:11.432Z,1.80
2022-11-23T04:17:11.439Z,1.70
2022-11-23T04:18:11.439Z,1.60
2022-11-23T04:19:11.447Z,1.80
2022-11-23T04:20:11.389Z,1.80
2022-11-23T04:21:11.382Z,1.40
2022-11-23T04:22:11.397Z,1.70
2022-11-23T04:23:13.609Z,1.80
2022-11-23T04:24:11.334Z,2.10
2022-11-23T04:25:11.368Z,1.60
2022-11-23T04:26:11.550Z,1.70
2022-11-23T04:27:11.361Z,1.90
2022-11-23T04:28:11.325Z,2.10
2022-11-23T04:29:11.367Z,2.00
2022-11-23T04:30:11.263Z,1.80
2022-11-23T04:31:11.295Z,1.70
2022-11-23T04:32:11.258Z,1.80
2022-11-23T04:33:11.248Z,1.80
2022-11-23T04:34:11.238Z,2.30
2022-11-23T04:35:11.261Z,1.90
2022-11-23T04:36:11.234Z,1.80
2022-11-23T04:37:13.449Z,1.90
2022-11-23T04:38:11.355Z,1.70
2022-11-23T04:39:11.299Z,1.80
2022-11-23T04:40:11.167Z,1.80
2022-11-23T04:41:11.172Z,1.90
2022-11-23T04:42:11.242Z,2.20
2022-11-23T04:43:11.176Z,1.80
2022-11-23T04:44:11.210Z,2.00
2022-11-23T04:45:11.319Z,1.90
2022-11-23T04:46:11.127Z,1.70
2022-11-23T04:47:11.163Z,2.00
2022-11-23T04:48:11.106Z,2.00
2022-11-23T04:49:11.128Z,2.00
2022-11-23T04:50:11.132Z,1.80
2022-11-23T04:51:11.128Z,1.40
2022-11-23T04:52:11.065Z,2.00
2022-11-23T04:53:11.091Z,1.50
2022-11-23T04:54:11.091Z,1.90
2022-11-23T04:55:11.100Z,1.40
2022-11-23T04:56:11.051Z,1.70
2022-11-23T04:57:11.059Z,1.90
2022-11-23T04:58:11.008Z,1.50
2022-11-23T04:59:11.005Z,1.40
2022-11-23T05:00:10.983Z,1.60
2022-11-23T05:01:11.062Z,1.70
2022-11-23T05:02:10.998Z,2.00
2022-11-23T05:03:10.959Z,1.60
2022-11-23T05:04:16.313Z,1.40
2022-11-23T05:05:10.981Z,1.60
2022-11-23T05:06:10.958Z,1.40
2022-11-23T05:07:10.992Z,1.60
2022-11-23T05:08:10.918Z,1.20
2022-11-23T05:09:10.939Z,1.60
2022-11-23T05:10:10.909Z,1.70
2022-11-23T05:11:10.912Z,1.60
2022-11-23T05:12:10.961Z,1.30
2022-11-23T05:13:10.881Z,1.40
2022-11-23T05:14:10.847Z,1.60
2022-11-23T05:15:10.843Z,1.50
2022-11-23T05:16:10.844Z,1.40
2022-11-23T05:17:10.808Z,1.70
2022-11-23T05:18:10.898Z,1.50
2022-11-23T05:19:10.822Z,1.40
2022-11-23T05:20:10.810Z,1.50
2022-11-23T05:21:10.820Z,1.40
2022-11-23T05:22:10.813Z,1.60
2022-11-23T05:23:10.773Z,1.70
2022-11-23T05:24:10.790Z,1.60
2022-11-23T05:25:10.888Z,1.60
2022-11-23T05:26:10.761Z,1.70
2022-11-23T05:27:10.739Z,1.20
2022-11-23T05:28:37.920Z,1.30
2022-11-23T05:29:10.716Z,1.80
2022-11-23T05:30:10.716Z,1.60
2022-11-23T05:31:10.742Z,1.40
2022-11-23T05:32:10.671Z,1.60
2022-11-23T05:33:10.655Z,1.30
2022-11-23T05:34:10.672Z,1.50
2022-11-23T05:35:10.645Z,1.60
2022-11-23T05:36:10.663Z,1.20
2022-11-23T05:37:10.619Z,1.50
2022-11-23T05:38:10.668Z,1.60
2022-11-23T05:39:10.588Z,1.80
2022-11-23T05:40:10.585Z,1.30
2022-11-23T05:41:10.588Z,1.30
2022-11-23T05:42:10.589Z,1.40
2022-11-23T05:43:10.573Z,1.80
2022-11-23T05:44:10.564Z,1.50
2022-11-23T05:45:11.858Z,1.80
2022-11-23T05:46:10.531Z,1.30
2022-11-23T05:47:10.516Z,1.70
2022-11-23T05:48:10.539Z,1.50
2022-11-23T05:49:10.532Z,1.70
2022-11-23T05:50:10.506Z,1.40
2022-11-23T05:51:10.493Z,1.70
2022-11-23T05:52:10.479Z,1.70
2022-11-23T05:53:10.462Z,1.50
2022-11-23T05:54:10.460Z,1.50
2022-11-23T05:55:10.448Z,1.70
2022-11-23T05:56:10.479Z,1.40
2022-11-23T05:57:10.409Z,1.60
2022-11-23T05:58:10.416Z,1.50
2022-11-23T05:59:10.419Z,1.40
2022-11-23T06:00:10.450Z,1.50
2022-11-23T06:01:10.394Z,1.40
2022-11-23T06:02:10.343Z,1.60
2022-11-23T06:03:10.395Z,1.40
2022-11-23T06:04:10.442Z,1.50
2022-11-23T06:05:10.351Z,1.70
2022-11-23T06:06:10.306Z,1.60
2022-11-23T06:07:10.369Z,1.50
2022-11-23T06:08:10.268Z,1.90
2022-11-23T06:09:10.280Z,1.50
2022-11-23T06:10:10.279Z,1.80
2022-11-23T06:11:10.226Z,1.40
2022-11-23T06:12:10.221Z,2.00
2022-11-23T06:13:10.236Z,1.90
2022-11-23T06:14:14.171Z,2.20
2022-11-23T06:15:10.311Z,1.90
2022-11-23T06:16:10.179Z,1.80
2022-11-23T06:17:10.183Z,1.90
2022-11-23T06:18:10.187Z,1.80
2022-11-23T06:19:10.234Z,1.70
2022-11-23T06:20:10.185Z,1.70
2022-11-23T06:21:10.151Z,1.90
2022-11-23T06:22:10.152Z,2.10
2022-11-23T06:23:10.130Z,2.10
2022-11-23T06:24:10.122Z,1.90
2022-11-23T06:25:10.167Z,1.50
2022-11-23T06:26:10.106Z,1.90
2022-11-23T06:27:13.993Z,1.90
2022-11-23T06:28:10.126Z,1.80
2022-11-23T06:29:10.065Z,1.60
2022-11-23T06:30:10.105Z,1.50
2022-11-23T06:31:10.027Z,1.80
2022-11-23T06:32:10.024Z,2.10
2022-11-23T06:33:10.067Z,1.80
2022-11-23T06:34:10.010Z,1.90
2022-11-23T06:35:10.028Z,1.90
2022-11-23T06:36:09.995Z,2.00
2022-11-23T06:37:09.970Z,1.90
2022-11-23T06:38:10.093Z,1.90
2022-11-23T06:39:09.968Z,1.50
2022-11-23T06:40:09.962Z,1.90
2022-11-23T06:41:09.956Z,2.10
2022-11-23T06:42:37.687Z,1.90
2022-11-23T06:43:09.924Z,1.90
2022-11-23T06:44:09.905Z,1.60
2022-11-23T06:45:09.896Z,2.00
2022-11-23T06:46:09.930Z,2.10
2022-11-23T06:47:15.374Z,2.40
2022-11-23T06:48:09.890Z,2.00
2022-11-23T06:49:09.896Z,2.10
2022-11-23T06:50:09.911Z,2.00
2022-11-23T06:51:09.853Z,2.00
2022-11-23T06:52:09.862Z,2.00
2022-11-23T06:53:09.922Z,1.60
2022-11-23T06:54:09.892Z,2.10
2022-11-23T06:55:09.841Z,2.20
2022-11-23T06:56:09.793Z,2.40
2022-11-23T06:57:09.852Z,3.20
2022-11-23T06:58:09.793Z,2.90
2022-11-23T06:59:09.789Z,2.60
2022-11-23T07:00:09.811Z,2.10
2022-11-23T07:01:09.812Z,1.70
2022-11-23T07:02:09.731Z,1.80
2022-11-23T07:03:09.850Z,1.70
2022-11-23T07:04:09.747Z,2.30
2022-11-23T07:05:09.759Z,1.80
2022-11-23T07:06:09.758Z,1.80
2022-11-23T07:07:09.813Z,2.30
2022-11-23T07:08:09.742Z,2.10
2022-11-23T07:09:09.656Z,2.40
2022-11-23T07:10:09.658Z,2.40
2022-11-23T07:11:09.670Z,2.30
2022-11-23T07:12:09.636Z,2.40
2022-11-23T07:13:09.629Z,2.70
2022-11-23T07:14:09.629Z,2.50
2022-11-23T07:15:09.629Z,2.50
2022-11-23T07:16:09.599Z,2.30
2022-11-23T07:17:12.717Z,2.10
2022-11-23T07:18:09.610Z,2.40
2022-11-23T07:19:09.667Z,2.30
2022-11-23T07:20:09.550Z,2.10
2022-11-23T07:21:09.575Z,2.20
2022-11-23T07:22:09.549Z,2.60
2022-11-23T07:23:09.517Z,2.30
2022-11-23T07:24:09.526Z,2.20
2022-11-23T07:25:09.557Z,2.60
2022-11-23T07:26:09.584Z,2.00
2022-11-23T07:27:09.502Z,2.40
2022-11-23T07:28:09.480Z,2.20
2022-11-23T07:29:09.549Z,2.00
2022-11-23T07:30:09.456Z,1.90
2022-11-23T07:31:09.496Z,2.30
2022-11-23T07:32:09.449Z,1.90
2022-11-23T07:33:09.419Z,1.90
2022-11-23T07:34:09.471Z,2.10
2022-11-23T07:35:09.404Z,2.30
2022-11-23T07:36:09.407Z,2.40
2022-11-23T07:37:09.407Z,2.40
2022-11-23T07:38:09.395Z,1.70
2022-11-23T07:39:09.984Z,2.10
2022-11-23T07:40:09.363Z,2.20
2022-11-23T07:41:09.385Z,2.30
2022-11-23T07:42:31.507Z,2.40
2022-11-23T07:43:09.322Z,2.30
2022-11-23T07:44:09.345Z,2.30
2022-11-23T07:45:09.327Z,2.50
2022-11-23T07:46:09.298Z,2.40
2022-11-23T07:47:09.295Z,2.20
2022-11-23T07:48:09.319Z,2.60
2022-11-23T07:49:09.290Z,1.90
2022-11-23T07:50:09.255Z,2.20
2022-11-23T07:51:09.280Z,2.40
2022-11-23T07:52:09.236Z,2.10
2022-11-23T07:53:09.242Z,2.20
2022-11-23T07:54:09.216Z,2.40
2022-11-23T07:55:09.221Z,1.80
2022-11-23T07:56:09.208Z,2.20
2022-11-23T07:57:09.200Z,1.90
2022-11-23T07:58:09.234Z,1.90
2022-11-23T07:59:09.218Z,2.10
2022-11-23T08:00:09.165Z,1.60
2022-11-23T08:01:09.175Z,1.90
2022-11-23T08:02:09.187Z,1.70
2022-11-23T08:03:27.405Z,1.60
2022-11-23T08:04:09.137Z,1.60
2022-11-23T08:05:14.034Z,2.10
2022-11-23T08:06:09.137Z,1.50
2022-11-23T08:07:09.215Z,2.60
2022-11-23T08:08:09.126Z,1.90
2022-11-23T08:09:09.067Z,2.20
2022-11-23T08:10:09.066Z,2.10
2022-11-23T08:11:09.040Z,1.70
2022-11-23T08:12:09.137Z,1.70
2022-11-23T08:13:09.042Z,1.80
2022-11-23T08:14:09.060Z,2.00
2022-11-23T08:15:09.004Z,1.80
2022-11-23T08:16:09.002Z,1.90
2022-11-23T08:17:09.005Z,1.90
2022-11-23T08:18:08.982Z,1.70
2022-11-23T08:19:08.996Z,2.10
2022-11-23T08:20:08.962Z,2.10
2022-11-23T08:21:08.940Z,2.40
2022-11-23T08:22:08.971Z,2.70
2022-11-23T08:23:08.934Z,2.30
2022-11-23T08:24:08.942Z,2.50
2022-11-23T08:25:08.908Z,3.00
2022-11-23T08:26:13.343Z,2.40
2022-11-23T08:27:08.889Z,3.20
2022-11-23T08:28:08.890Z,2.40
2022-11-23T08:29:08.899Z,3.10
2022-11-23T08:30:08.878Z,2.80
2022-11-23T08:31:08.904Z,2.90
2022-11-23T08:32:08.855Z,2.70
2022-11-23T08:33:08.824Z,2.40
2022-11-23T08:34:08.841Z,2.50
2022-11-23T08:35:08.836Z,2.70
2022-11-23T08:36:08.832Z,2.70
2022-11-23T08:37:08.796Z,2.60
2022-11-23T08:38:08.789Z,2.70
2022-11-23T08:39:08.795Z,2.80
2022-11-23T08:40:08.770Z,2.70
2022-11-23T08:41:08.766Z,2.30
2022-11-23T08:42:08.737Z,2.80
2022-11-23T08:43:08.739Z,2.40
2022-11-23T08:44:08.726Z,2.90
2022-11-23T08:45:08.757Z,2.90
2022-11-23T08:46:11.218Z,2.50
2022-11-23T08:47:08.724Z,2.30
2022-11-23T08:48:08.719Z,2.70
2022-11-23T08:49:08.671Z,3.00
2022-11-23T08:50:08.690Z,2.50
2022-11-23T08:51:08.668Z,2.30
2022-11-23T08:52:08.650Z,3.00
2022-11-23T08:53:08.702Z,2.70
2022-11-23T08:54:08.652Z,2.20
2022-11-23T08:55:08.624Z,2.60
2022-11-23T08:56:08.629Z,1.90
2022-11-23T08:57:08.599Z,2.30
2022-11-23T08:58:13.114Z,2.50
2022-11-23T08:59:08.569Z,2.80
2022-11-23T09:00:08.585Z,2.10
2022-11-23T09:01:08.601Z,2.10
2022-11-23T09:02:08.547Z,1.80
2022-11-23T09:03:08.544Z,1.90
2022-11-23T09:04:08.515Z,2.10
2022-11-23T09:05:08.528Z,2.10
2022-11-23T09:06:08.558Z,1.50
2022-11-23T09:07:08.567Z,1.60
2022-11-23T09:08:08.495Z,1.70
2022-11-23T09:09:08.468Z,1.90
2022-11-23T09:10:08.470Z,1.60
2022-11-23T09:11:08.501Z,1.50
2022-11-23T09:12:08.456Z,1.60
2022-11-23T09:13:08.463Z,1.80
2022-11-23T09:14:08.479Z,1.80
2022-11-23T09:15:08.409Z,1.70
2022-11-23T09:16:08.414Z,1.60
2022-11-23T09:17:08.397Z,1.80
2022-11-23T09:18:08.401Z,1.70
2022-11-23T09:19:08.378Z,1.50
2022-11-23T09:20:08.371Z,1.70
2022-11-23T09:21:08.429Z,1.70
2022-11-23T09:22:08.341Z,1.70
2022-11-23T09:23:13.742Z,1.50
2022-11-23T09:24:08.447Z,1.50
2022-11-23T09:25:08.351Z,1.80
2022-11-23T09:26:08.328Z,2.10
2022-11-23T09:27:08.332Z,1.50
2022-11-23T09:28:08.321Z,1.90
2022-11-23T09:29:08.282Z,1.70
2022-11-23T09:30:08.330Z,1.50
2022-11-23T09:31:08.260Z,1.60
2022-11-23T09:32:08.265Z,1.90
2022-11-23T09:33:08.370Z,2.00
2022-11-23T09:34:08.252Z,1.90
2022-11-23T09:35:08.212Z,2.40
2022-11-23T09:36:08.255Z,1.70
2022-11-23T09:37:08.191Z,1.70
2022-11-23T09:38:08.199Z,1.70
2022-11-23T09:39:08.266Z,1.80
2022-11-23T09:40:08.185Z,1.60
2022-11-23T09:41:08.214Z,1.80
2022-11-23T09:42:08.167Z,1.90
2022-11-23T09:43:08.161Z,1.90
2022-11-23T09:44:08.176Z,1.90
2022-11-23T09:45:08.183Z,1.70
2022-11-23T09:46:08.131Z,1.50
2022-11-23T09:47:08.108Z,1.60
2022-11-23T09:48:08.089Z,1.60
2022-11-23T09:49:08.072Z,1.80
2022-11-23T09:50:08.124Z,1.30
2022-11-23T09:51:08.057Z,1.60
2022-11-23T09:52:08.221Z,1.70
2022-11-23T09:53:08.049Z,1.80
2022-11-23T09:54:08.035Z,1.80
2022-11-23T09:55:08.168Z,1.50
2022-11-23T09:56:08.008Z,1.20
2022-11-23T09:57:08.018Z,1.60
2022-11-23T09:58:07.998Z,1.40
2022-11-23T09:59:07.987Z,1.30
2022-11-23T10:00:07.978Z,1.30
2022-11-23T10:01:08.069Z,1.40
2022-11-23T10:02:08.015Z,1.20
2022-11-23T10:03:07.947Z,1.20
2022-11-23T10:04:08.075Z,1.00
2022-11-23T10:05:07.925Z,1.10
2022-11-23T10:06:07.944Z,1.30
2022-11-23T10:07:07.927Z,1.30
2022-11-23T10:08:07.920Z,1.30
2022-11-23T10:09:07.885Z,1.50
2022-11-23T10:10:07.908Z,1.40
2022-11-23T10:11:07.850Z,1.20
2022-11-23T10:12:07.853Z,1.20
2022-11-23T10:13:07.855Z,1.30
2022-11-23T10:14:07.844Z,1.10
2022-11-23T10:15:07.829Z,1.10
2022-11-23T10:16:07.826Z,1.40
2022-11-23T10:17:07.810Z,1.20
2022-11-23T10:18:07.810Z,1.10
2022-11-23T10:19:07.790Z,1.30
2022-11-23T10:20:07.771Z,1.10
2022-11-23T10:21:07.763Z,1.60
2022-11-23T10:22:07.774Z,1.40
2022-11-23T10:23:07.734Z,1.20
2022-11-23T10:24:07.757Z,1.30
2022-11-23T10:25:07.715Z,1.30
2022-11-23T10:26:07.702Z,1.10
2022-11-23T10:27:07.741Z,1.30
2022-11-23T10:28:07.702Z,1.10
2022-11-23T10:29:07.682Z,1.20
2022-11-23T10:30:07.684Z,1.20
2022-11-23T10:31:07.707Z,1.30
2022-11-23T10:32:07.645Z,1.10
2022-11-23T10:33:07.630Z,1.10
2022-11-23T10:34:07.643Z,1.20
2022-11-23T10:35:07.610Z,1.20
2022-11-23T10:36:07.612Z,1.50
2022-11-23T10:37:07.613Z,1.30
2022-11-23T10:38:07.584Z,1.40
2022-11-23T10:39:07.641Z,1.20
2022-11-23T10:40:07.564Z,1.40
2022-11-23T10:41:07.552Z,1.30
2022-11-23T10:42:07.573Z,1.50
2022-11-23T10:43:07.534Z,1.60
2022-11-23T10:44:07.556Z,1.30
2022-11-23T10:45:07.521Z,1.30
2022-11-23T10:46:07.496Z,1.40
2022-11-23T10:47:07.507Z,1.40
2022-11-23T10:48:07.501Z,1.30
2022-11-23T10:49:07.473Z,1.30
2022-11-23T10:50:07.466Z,1.30
2022-11-23T10:51:07.453Z,1.20
2022-11-23T10:52:07.500Z,1.20
2022-11-23T10:53:07.420Z,1.40
2022-11-23T10:54:07.423Z,1.60
2022-11-23T10:55:07.442Z,1.20
2022-11-23T10:56:07.433Z,1.10
2022-11-23T10:57:07.386Z,1.00
2022-11-23T10:58:07.400Z,1.10
2022-11-23T10:59:07.376Z,1.30
2022-11-23T11:00:07.367Z,1.30
2022-11-23T11:01:07.362Z,1.10
2022-11-23T11:02:07.397Z,1.10
2022-11-23T11:03:07.411Z,1.50
2022-11-23T11:04:07.394Z,1.60
2022-11-23T11:05:07.302Z,1.00
2022-11-23T11:06:09.974Z,1.10
2022-11-23T11:07:07.342Z,1.20
2022-11-23T11:08:07.263Z,1.10
2022-11-23T11:09:12.274Z,1.10
2022-11-23T11:10:07.410Z,1.00
2022-11-23T11:11:07.399Z,1.20
2022-11-23T11:12:07.243Z,1.40
2022-11-23T11:13:07.291Z,1.10
2022-11-23T11:14:07.233Z,1.20
2022-11-23T11:15:11.693Z,1.00
2022-11-23T11:16:07.281Z,1.30
2022-11-23T11:17:07.178Z,1.30
2022-11-23T11:18:07.171Z,1.20
2022-11-23T11:19:07.160Z,1.00
2022-11-23T11:20:07.202Z,1.00
2022-11-23T11:21:07.243Z,1.00
2022-11-23T11:22:07.344Z,0.90
2022-11-23T11:23:07.271Z,1.00
2022-11-23T11:24:07.115Z,1.10
2022-11-23T11:25:07.103Z,1.20
2022-11-23T11:26:07.210Z,1.00
2022-11-23T11:27:07.091Z,1.00
2022-11-23T11:28:07.076Z,1.00
2022-11-23T11:29:07.062Z,1.30
2022-11-23T11:30:07.036Z,1.00
2022-11-23T11:31:07.123Z,1.00
2022-11-23T11:32:07.045Z,1.10
2022-11-23T11:33:07.028Z,1.00
2022-11-23T11:34:07.001Z,1.20
2022-11-23T11:35:07.044Z,1.00
2022-11-23T11:36:07.022Z,1.10
2022-11-23T11:37:06.973Z,1.10
2022-11-23T11:38:07.043Z,1.00
2022-11-23T11:39:18.205Z,1.00
2022-11-23T11:40:06.967Z,1.10
2022-11-23T11:41:06.939Z,1.00
2022-11-23T11:42:06.949Z,1.20
2022-11-23T11:43:06.915Z,1.10
2022-11-23T11:44:06.922Z,1.20
2022-11-23T11:45:07.006Z,0.90
2022-11-23T11:46:27.887Z,0.90
2022-11-23T11:47:07.191Z,1.10
2022-11-23T11:48:06.952Z,0.80
2022-11-23T11:49:06.854Z,1.20
2022-11-23T11:50:06.880Z,1.00
2022-11-23T11:51:06.840Z,1.00
2022-11-23T11:52:06.821Z,1.00
2022-11-23T11:53:06.860Z,1.00
2022-11-23T11:54:06.863Z,1.00
2022-11-23T11:55:06.834Z,0.90
2022-11-23T11:56:06.821Z,0.90
2022-11-23T11:57:06.806Z,0.80
2022-11-23T11:58:06.774Z,0.90
2022-11-23T11:59:06.796Z,1.00
2022-11-23T12:00:06.760Z,1.00
2022-11-23T12:01:06.770Z,0.90
2022-11-23T12:02:06.715Z,1.00
2022-11-23T12:03:06.820Z,0.90
2022-11-23T12:04:06.685Z,1.10
2022-11-23T12:05:06.739Z,0.80
2022-11-23T12:06:06.694Z,1.00
2022-11-23T12:07:06.773Z,1.00
2022-11-23T12:08:06.681Z,1.00
2022-11-23T12:09:06.636Z,0.80
2022-11-23T12:10:06.633Z,1.00
2022-11-23T12:11:06.643Z,1.00
2022-11-23T12:12:06.611Z,0.80
2022-11-23T12:13:06.612Z,1.20
2022-11-23T12:14:06.587Z,1.10
2022-11-23T12:15:26.302Z,1.10
2022-11-23T12:16:06.583Z,1.10
2022-11-23T12:17:33.960Z,1.10
2022-11-23T12:18:08.595Z,0.90
2022-11-23T12:19:06.714Z,1.20
2022-11-23T12:20:06.596Z,1.20
2022-11-23T12:21:06.953Z,1.10
2022-11-23T12:22:06.569Z,1.00
2022-11-23T12:23:06.507Z,1.20
2022-11-23T12:24:06.502Z,1.20
2022-11-23T12:25:06.480Z,1.10
2022-11-23T12:26:06.498Z,1.00
2022-11-23T12:27:06.468Z,1.20
2022-11-23T12:28:06.445Z,1.10
2022-11-23T12:29:06.512Z,1.20
2022-11-23T12:30:06.543Z,1.30
2022-11-23T12:31:06.435Z,1.10
2022-11-23T12:32:06.406Z,1.40
2022-11-23T12:33:06.412Z,1.00
2022-11-23T12:34:06.394Z,1.20
2022-11-23T12:35:06.399Z,1.10
2022-11-23T12:36:06.372Z,1.00
2022-11-23T12:37:06.407Z,1.10
2022-11-23T12:38:06.386Z,1.50
2022-11-23T12:39:06.330Z,1.40
2022-11-23T12:40:06.325Z,1.10
2022-11-23T12:41:06.336Z,1.30
2022-11-23T12:42:06.337Z,1.20
2022-11-23T12:43:06.318Z,1.30
2022-11-23T12:44:06.292Z,1.20
2022-11-23T12:45:06.308Z,1.40
2022-11-23T12:46:06.357Z,1.40
2022-11-23T12:47:06.320Z,1.20
2022-11-23T12:48:06.324Z,1.20
2022-11-23T12:49:06.275Z,1.20
2022-11-23T12:50:06.254Z,1.40
2022-11-23T12:51:06.216Z,1.30
2022-11-23T12:52:06.196Z,1.10
2022-11-23T12:53:06.197Z,1.20
2022-11-23T12:54:06.285Z,1.00
2022-11-23T12:55:06.239Z,1.20
2022-11-23T12:56:06.163Z,1.20
2022-11-23T12:57:06.191Z,1.20
2022-11-23T12:58:06.142Z,1.50
2022-11-23T12:59:06.164Z,1.20
2022-11-23T13:00:06.161Z,1.30
2022-11-23T13:01:06.174Z,1.40
2022-11-23T13:02:06.309Z,1.20
2022-11-23T13:03:06.109Z,1.30
2022-11-23T13:04:06.281Z,1.10
2022-11-23T13:05:06.126Z,1.10
2022-11-23T13:06:06.158Z,1.10
2022-11-23T13:07:27.671Z,1.30
2022-11-23T13:08:06.127Z,1.10
2022-11-23T13:09:06.058Z,1.10
2022-11-23T13:10:06.015Z,1.20
2022-11-23T13:11:06.064Z,1.10
2022-11-23T13:12:05.996Z,1.20
2022-11-23T13:13:08.795Z,1.00
2022-11-23T13:14:05.981Z,1.20
2022-11-23T13:15:06.005Z,1.20
2022-11-23T13:16:06.443Z,1.10
2022-11-23T13:17:05.957Z,1.00
2022-11-23T13:18:06.032Z,1.00
2022-11-23T13:19:05.942Z,1.10
2022-11-23T13:20:05.939Z,1.00